Weather observations for the past three days for
Manning / Cooper Regional
Metric (Imperial)
Date Time (edt) Wind (kph) Vis. (km) Weather Sky Cond. Temperature (ºC) Relative Humidity Wind Chill (°C) Heat Index (°C) Pressure Precipitation (cm)
Air Dwpt 6 hour altimeter (cm) sea level (mb) 1 hr 3 hr 6 hr
Max. Min.
05 17:35 SW 11 16.09 Fair CLR 36 24 50% 43 75.72 0.0
05 17:15 S 9 16.09 Fair CLR 36 23 47% 42 75.74 0.0
05 16:55 S 11 16.09 Fair CLR 36 23 47% 42 75.74 0.0
05 16:35 S 7 16.09 Fair CLR 36 23 47% 42 75.72 0.0
05 16:15 S 7 16.09 Fair CLR 36 23 47% 42 75.72 0.0
05 15:55 SW 9 16.09 Fair CLR 36 25 53% 45 75.74 0.0
05 13:55 Calm 16.09 Fair CLR 34 24 56% 41 75.9 0.0
05 13:35 SW 9 16.09 Fair CLR 34 25 59% 42 75.92 0.0
05 13:15 SW 6 16.09 Fair CLR 34 25 59% 42 75.95 0.0
05 12:55 Calm 16.09 Fair CLR 33 26 67% 42 75.95 0.0
05 12:35 NW 6 16.09 Fair CLR 33 25 63% 41 76 0.0
05 12:15 W 9 16.09 Fair CLR 32 25 67% 39 76 0.0
05 11:55 W 9 16.09 Fair CLR 32 25 67% 39 76.05 0.0
05 11:35 Calm 16.09 Fair CLR 32 25 67% 39 76.05 0.0
05 11:15 NW 9 16.09 Fair CLR 31 25 70% 38 76.07 0.0
05 10:55 W 7 16.09 Fair CLR 31 25 70% 38 76.07 0.0
05 10:35 W 11 16.09 Fair CLR 31 25 70% 38 76.07 0.0
05 10:15 W 9 16.09 Partly Cloudy SCT012 30 25 75% 36 76.07 0.0
05 09:55 NW 11 16.09 Partly Cloudy SCT012 30 26 79% 37 76.1 0.0
05 09:35 W 9 16.09 Partly Cloudy SCT008 28 26 89% 34 76.1 0.0
05 09:15 Calm 16.09 Mostly Cloudy BKN006 28 26 89% 34 76.1 0.0
05 08:55 NW 6 16.09 Overcast OVC004 27 26 94% 31 76.1 0.0
05 08:35 W 6 16.09 Overcast OVC004 26 26 100% 28 76.1 0.0
05 08:15 W 9 11.27 Overcast OVC004 26 26 100% 28 76.1 0.0
05 07:55 W 9 11.27 Overcast OVC004 26 26 100% 28 76.07 0.0
05 07:35 W 6 16.09 Overcast OVC006 26 26 100% 28 76.07 0.0
05 07:15 Calm 16.09 Mostly Cloudy BKN008 26 26 100% 28 76.07 0.0
05 06:55 Calm 16.09 Partly Cloudy SCT008 25 25 100% 25 76.05 0.0
05 06:35 SW 6 16.09 Fair CLR 25 25 100% 25 76.05 0.0
05 06:15 Calm 16.09 Fair CLR 25 25 100% 25 76.02 0.0
05 05:55 Calm 16.09 Fair CLR 25 25 100% 25 76.02 0.0
05 05:35 Calm 16.09 Fair CLR 25 25 100% 25 76.02 0.0
05 05:15 Calm 16.09 Fair CLR 26 25 94% 28 76.02 0.0
05 04:55 Calm 16.09 Fair CLR 26 26 100% 28 76.02 0.0
05 04:35 Calm 16.09 Fair CLR 26 26 100% 28 76.02 0.0
05 04:15 Calm 16.09 Fair CLR 26 26 100% 28 76.02 0.0
05 03:55 SW 6 16.09 Fair CLR 26 26 100% 28 76.02 0.0
05 03:35 Calm 16.09 Fair CLR 26 26 100% 28 76.02 0.0
05 03:15 Calm 16.09 Fair CLR 27 26 94% 31 76.02 0.0
05 02:55 Calm 16.09 Fair CLR 27 26 94% 31 76.05 0.0
05 02:35 Calm 16.09 Fair CLR 27 26 94% 31 76.05 0.0
05 02:15 SW 7 16.09 Fair CLR 27 26 94% 31 76.02 0.0
05 01:55 SW 6 16.09 Fair CLR 27 26 94% 31 76.05 0.0
05 01:35 W 6 16.09 Fair CLR 27 26 94% 31 76.07 0.0
05 01:15 Calm 16.09 Fair CLR 28 26 89% 34 76.1 0.0
05 00:55 SW 6 16.09 Fair CLR 28 26 89% 34 76.12 0.0
05 00:35 Calm 16.09 Fair CLR 28 26 89% 34 76.15 0.0
05 00:15 SW 6 16.09 Fair CLR 28 26 89% 34 76.12 0.0
04 23:55 SW 6 16.09 Fair CLR 28 26 89% 34 76.12 0.0
04 23:35 SW 7 16.09 Fair CLR 28 26 89% 34 76.15 0.0
04 23:15 SW 6 16.09 Fair CLR 28 26 89% 34 76.17 0.0
04 22:55 SW 6 16.09 Fair CLR 29 26 84% 36 76.17 0.0
04 22:35 SW 9 16.09 Fair CLR 29 26 84% 36 76.17 0.0
04 22:15 SW 11 16.09 Fair CLR 30 26 79% 37 76.15 0.0
04 21:55 SW 9 16.09 Fair CLR 30 26 79% 37 76.15 0.0
04 21:35 SW 15 16.09 Fair CLR 30 26 79% 37 76.15 0.0
04 21:15 SW 11 16.09 Fair CLR 30 26 79% 37 76.12 0.0
04 20:55 SW 11 16.09 Fair CLR 31 26 75% 39 76.12 0.0
04 20:35 S 13 16.09 Fair CLR 31 26 75% 39 76.1 0.0
04 20:15 S 15 16.09 Fair CLR 31 26 75% 39 76.07 0.0
04 19:55 S 11 16.09 Fair CLR 32 26 71% 41 76.07 0.0
04 19:35 S 11 16.09 Partly Cloudy SCT050 SCT060 32 26 71% 41 76.07 0.0
04 19:15 S 13 16.09 Overcast BKN050 OVC060 33 26 67% 42 76.05 0.0
04 18:55 SW 19 16.09 Overcast BKN050 OVC060 34 26 63% 43 76.05 0.0
04 18:35 SW 7 16.09 Partly Cloudy SCT050 SCT070 35 24 53% 42 76.05 0.0
04 18:15 SW 7 16.09 Partly Cloudy SCT050 SCT070 35 24 53% 42 76.05 0.0
04 17:55 SW 11 16.09 Fair CLR 35 24 53% 42 76.02 0.0
04 17:35 S 6 16.09 Fair CLR 35 24 53% 42 76.05 0.0
04 17:15 SW 9 16.09 Partly Cloudy SCT050 35 23 50% 41 76.05 0.0
04 16:55 S 7 16.09 Partly Cloudy SCT050 36 23 47% 42 76.05 0.0
04 16:35 Calm 16.09 Partly Cloudy SCT050 36 23 47% 42 76.07 0.0
04 16:10 Calm 16.09 Fair CLR 36 23 47% 42 76.1 0.0
04 15:55 S 7 16.09 Fair CLR 36 24 50% 43 76.12 0.0
04 15:35 Calm 16.09 Fair CLR 36 23 47% 42 76.12 0.0
04 15:10 SW 9 16.09 Fair CLR 35 24 53% 42 76.15 0.0
04 14:55 Calm 16.09 Partly Cloudy SCT044 35 23 50% 41 76.17 0.0
04 14:35 S 7 16.09 Partly Cloudy SCT044 35 24 53% 42 76.2 0.0
04 14:15 SW 6 16.09 Fair CLR 34 24 56% 41 76.2 0.0
04 13:55 Calm 16.09 Partly Cloudy SCT042 SCT048 SCT055 33 25 63% 41 76.23 0.0
04 13:35 Calm 16.09 Mostly Cloudy SCT045 BKN055 33 25 63% 41 76.25 0.0
04 13:15 SW 6 16.09 Mostly Cloudy SCT048 BKN055 33 25 63% 41 76.25 0.0
04 12:55 Calm 16.09 Partly Cloudy SCT043 SCT050 32 24 63% 38 76.28 0.0
04 12:35 SW 7 16.09 Partly Cloudy SCT038 33 23 56% 38 76.28 0.0
04 12:15 SW 7 16.09 Fair CLR 33 23 56% 38 76.3 0.0
04 11:55 SW 6 16.09 Partly Cloudy SCT036 32 23 59% 37 76.3 0.0
04 11:35 SW 7 16.09 Fair CLR 32 23 59% 37 76.33 0.0
04 11:15 SW 6 16.09 Fair CLR 32 24 63% 38 76.33 0.0
04 10:55 E 6 16.09 Fair CLR 31 24 66% 37 76.33 0.0
04 10:35 SE 7 16.09 Fair CLR 31 25 70% 38 76.33 0.0
04 10:15 Calm 16.09 Fair CLR 31 25 70% 38 76.33 0.0
04 09:55 Calm 16.09 Partly Cloudy SCT013 29 25 79% 35 76.33 0.0
04 09:35 SW 6 16.09 Partly Cloudy SCT013 30 26 79% 37 76.33 0.0
04 09:15 Calm 16.09 Fair CLR 29 27 89% 37 76.33 0.0
04 08:55 Calm 16.09 Fair CLR 27 26 94% 31 76.33 0.0
04 08:35 Calm 16.09 Fair CLR 26 25 94% 28 76.33 0.0
04 08:15 Calm 16.09 Fair CLR 25 24 94% 26 76.33 0.0
04 07:55 Calm 16.09 Partly Cloudy SCT002 24 24 100% 23 76.3 0.0
04 07:35 Calm 16.09 Overcast OVC002 24 23 94% 23 76.3 0.0
04 07:15 Calm 11.27 Overcast OVC002 24 23 94% 23 76.28 0.0
04 06:55 Calm 16.09 Mostly Cloudy BKN002 BKN008 23 23 100% 76.28 0.0
04 06:35 Calm 16.09 Partly Cloudy SCT002 SCT008 24 23 94% 23 76.25 0.0
04 06:15 Calm 16.09 Fair CLR 24 24 100% 23 76.25 0.0
04 05:55 Calm 16.09 Fair CLR 24 24 100% 23 76.25 0.0
04 05:35 Calm 16.09 Fair CLR 24 24 100% 23 76.25 0.0
04 05:15 Calm 16.09 Fair CLR 24 24 100% 23 76.23 0.0
04 04:55 Calm 16.09 Fair CLR 24 24 100% 23 76.2 0.0
04 04:35 Calm 16.09 Fair CLR 24 24 100% 23 76.2 0.0
04 04:15 Calm 16.09 Fair CLR 25 25 100% 25 76.2 0.0
04 03:55 Calm 16.09 Fair CLR 25 25 100% 25 76.2 0.0
04 03:35 Calm 16.09 Fair CLR 25 25 100% 25 76.2 0.0
04 03:15 Calm 16.09 Fair CLR 25 25 100% 25 76.2 0.0
04 02:55 Calm 16.09 Fair CLR 25 25 100% 25 76.2 0.0
04 02:35 Calm 16.09 Fair CLR 25 25 100% 25 76.23 0.0
04 02:15 Calm 16.09 Fair CLR 25 25 100% 25 76.25 0.0
04 01:55 Calm 16.09 Fair CLR 25 25 100% 25 76.28 0.0
04 01:35 Calm 16.09 Fair CLR 26 25 94% 28 76.3 0.0
04 01:15 Calm 16.09 Fair CLR 26 25 94% 28 76.3 0.0
04 00:55 SE 6 16.09 Fair CLR 26 25 94% 28 76.33 0.0
04 00:35 SE 6 16.09 Fair CLR 26 25 94% 28 76.33 0.0
04 00:15 Calm 16.09 Fair CLR 26 25 94% 28 76.33 0.0
03 23:55 SE 6 16.09 Fair CLR 26 25 94% 28 76.33 0.0
03 23:35 Calm 16.09 Fair CLR 27 25 89% 31 76.33 0.0
03 23:15 Calm 16.09 Fair CLR 27 25 89% 31 76.33 0.0
03 22:55 Calm 16.09 Fair CLR 27 25 89% 31 76.33 0.0
03 22:35 SE 6 16.09 Fair CLR 27 25 89% 31 76.33 0.0
03 22:15 S 6 16.09 Fair CLR 27 25 89% 31 76.33 0.0
03 21:55 Calm 16.09 Fair CLR 28 25 84% 33 76.33 0.0
03 21:35 Calm 16.09 Fair CLR 28 25 84% 33 76.3 0.0
03 21:15 Calm 16.09 Fair CLR 28 25 84% 33 76.3 0.0
03 20:55 S 6 16.09 Fair CLR 29 25 79% 35 76.25 0.0
03 20:35 S 9 16.09 Fair CLR 29 25 79% 35 76.25 0.0
03 20:15 S 6 16.09 Fair CLR 30 25 75% 36 76.2 0.0
03 19:50 S 7 16.09 Fair CLR 30 25 75% 36 76.2 0.0
03 19:35 S 7 16.09 Fair CLR 31 25 70% 38 76.2 0.0
03 19:15 S 9 16.09 Fair CLR 32 25 67% 39 76.2 0.0
03 18:55 S 11 16.09 Fair CLR 33 25 63% 41 76.2 0.0
03 18:35 S 13 16.09 Fair CLR 33 25 63% 41 76.2 0.0
03 18:15 S 11 16.09 Fair CLR 35 23 50% 41 76.17 0.0
03 17:55 S 9 16.09 Fair CLR 35 23 50% 41 76.17 0.0
03 17:35 SE 11 16.09 Partly Cloudy SCT060 35 23 50% 41 76.2 0.0
03 17:15 SE 6 16.09 Mostly Cloudy BKN060 35 23 50% 41 76.2 0.0
03 16:55 Calm 16.09 Mostly Cloudy BKN060 BKN070 BKN085 35 24 53% 42 76.2 0.0
03 16:35 SW 9 16.09 Mostly Cloudy SCT050 BKN055 BKN070 36 25 53% 45 76.2 0.0
03 16:15 SW 13 16.09 Mostly Cloudy SCT050 BKN070 36 25 53% 45 76.23 0.0
03 15:55 SW 15 16.09 Partly Cloudy SCT050 36 25 53% 45 76.23 0.0
03 15:35 SW 13 16.09 Partly Cloudy SCT060 35 25 56% 43 76.23 0.0
03 15:15 SW 6 16.09 Partly Cloudy SCT060 35 24 53% 42 76.25 0.0
03 14:55 SE 11 16.09 Partly Cloudy SCT060 36 23 47% 42 76.25 0.0
03 14:35 E 13 16.09 Partly Cloudy SCT049 36 23 47% 42 76.25 0.0
03 14:15 SE 17 16.09 Partly Cloudy SCT049 36 24 50% 43 76.28 0.0
03 13:55 SE 6 16.09 Partly Cloudy SCT045 36 24 50% 43 76.28 0.0
03 13:35 E 7 16.09 Partly Cloudy SCT043 35 24 53% 42 76.3 0.0
03 13:15 SE 11 16.09 Partly Cloudy SCT041 35 25 56% 43 76.3 0.0
03 12:55 Calm 16.09 Fair CLR 35 24 53% 42 76.33 0.0
03 12:35 E 9 16.09 Fair CLR 33 24 59% 39 76.35 0.0
03 12:15 SE 9 16.09 Fair CLR 33 24 59% 39 76.38 0.0
03 11:55 E 6 16.09 Fair CLR 33 25 63% 41 76.38 0.0
03 11:35 SE 7 16.09 Fair CLR 32 25 67% 39 76.4 0.0
03 11:15 E 6 16.09 Fair CLR 32 23 59% 37 76.4 0.0
03 10:55 Calm 16.09 Fair CLR 32 25 67% 39 76.4 0.0
03 10:35 Calm 16.09 Fair CLR 31 25 70% 38 76.38 0.0
03 10:15 Calm 16.09 Fair CLR 30 25 75% 36 76.4 0.0
03 09:55 Calm 16.09 Fair CLR 30 26 79% 37 76.4 0.0
03 09:35 Calm 16.09 Fair CLR 29 26 84% 36 76.4 0.0
03 09:15 Calm 16.09 Fair CLR 28 26 89% 34 76.4 0.0
03 08:55 Calm 16.09 Fair CLR 28 26 89% 34 76.4 0.0
03 08:35 Calm 16.09 Fair CLR 26 25 94% 28 76.4 0.0
03 08:15 Calm 16.09 Fair CLR 25 24 94% 26 76.4 0.0
03 07:55 Calm 16.09 Fair CLR 24 23 94% 23 76.4 0.0
03 07:35 Calm 16.09 Fair CLR 24 23 94% 23 76.38 0.0
03 07:15 Calm 16.09 Fair CLR 24 23 94% 23 76.38 0.0
03 06:55 Calm 16.09 Fair CLR 23 23 100% 76.35 0.0
03 06:35 Calm 16.09 Fair CLR 24 23 94% 23 76.35 0.0
03 06:15 Calm 16.09 Fair CLR 24 23 94% 23 76.33 0.0
03 05:55 Calm 16.09 Fair CLR 24 23 94% 23 76.33 0.0
03 05:35 Calm 8.05 Fog/Mist CLR 24 24 100% 23 76.33 0.0
03 05:15 Calm 16.09 Fair CLR 24 24 100% 23 76.33 0.0
03 04:55 Calm 16.09 Fair CLR 25 24 94% 26 76.33 0.0
03 04:35 Calm 16.09 Fair CLR 24 24 100% 23 76.3 0.0
03 04:15 Calm 16.09 Fair CLR 25 24 94% 26 76.28 0.0
03 03:55 Calm 16.09 Fair CLR 25 24 94% 26 76.3 0.0
03 03:35 Calm 16.09 Fair CLR 25 24 94% 26 76.28 0.0
03 03:15 Calm 16.09 Fair CLR 25 24 94% 26 76.25 0.0
03 02:55 Calm 16.09 Fair CLR 25 24 94% 26 76.28 0.0
03 02:35 Calm 16.09 Fair CLR 26 25 94% 28 76.25 0.0
03 02:15 Calm 16.09 Fair CLR 26 25 94% 28 76.28 0.0
03 01:55 Calm 16.09 Fair CLR 26 25 94% 28 76.28 0.0
03 01:35 SW 6 16.09 Fair CLR 27 25 89% 31 76.28 0.0
03 01:15 Calm 16.09 Fair CLR 26 24 89% 28 76.25 0.0
03 00:55 Calm 16.09 Fair CLR 26 24 89% 28 76.28 0.0
03 00:35 Calm 16.09 Fair CLR 26 24 89% 28 76.28 0.0
03 00:15 Calm 16.09 Fair CLR 27 25 89% 31 76.3 0.0
02 23:55 Calm 16.09 Fair CLR 27 24 84% 30 76.33 0.0
02 23:35 Calm 16.09 Fair CLR 27 25 89% 31 76.33 0.0
02 23:15 Calm 16.09 Fair CLR 28 24 79% 32 76.35 0.0
02 22:55 S 6 16.09 Fair CLR 28 24 79% 32 76.35 0.0
02 22:35 S 6 16.09 Fair CLR 28 25 84% 33 76.38 0.0
02 22:15 S 6 16.09 Fair CLR 29 24 74% 34 76.38 0.0
02 21:55 S 6 16.09 Fair CLR 30 25 75% 36 76.35 0.0
02 21:35 S 9 16.09 Fair CLR 30 25 75% 36 76.33 0.0
02 21:15 S 7 16.09 Fair CLR 30 25 75% 36 76.33 0.0
02 20:55 S 9 16.09 Fair CLR 30 25 75% 36 76.3 0.0
02 20:35 S 9 16.09 Fair CLR 31 25 70% 38 76.28 0.0
02 20:15 S 7 16.09 Fair CLR 31 25 70% 38 76.25 0.0
02 19:55 S 9 16.09 Partly Cloudy SCT050 31 25 70% 38 76.25 0.0
02 19:35 S 6 16.09 Fair CLR 32 26 71% 41 76.23 0.0
02 19:15 Calm 16.09 Fair CLR 33 26 67% 42 76.23 0.0
02 18:55 S 6 16.09 Fair CLR 34 25 59% 42 76.23 0.0
02 18:35 S 7 16.09 Fair CLR 35 24 53% 42 76.23 0.0
02 18:15 SW 9 16.09 Fair CLR 35 24 53% 42 76.23 0.0
02 17:55 S 9 16.09 Fair CLR 36 25 53% 45 76.23 0.0
Date Time (edt) Wind (kph) Vis. (km) Weather Sky Cond. Air Dwpt Max. Min. Relative Humidity Wind Chill (°C) Heat Index (°C) altimeter (cm) sea level (mb) 1 hr 3 hr 6 hr
6 hour
Temperature (ºC) Pressure Precipitation (cm)